sensor_id;sensor_type;location;lat;lon;timestamp;P1;durP1;ratioP1;P2;durP2;ratioP2
43226;SDS011;28839;52.404;9.808;2023-02-28T00:01:53;12.45;;;7.00;;
43226;SDS011;28839;52.404;9.808;2023-02-28T00:08:47;10.27;;;6.32;;
43226;SDS011;28839;52.404;9.808;2023-02-28T00:15:43;10.60;;;6.47;;
43226;SDS011;28839;52.404;9.808;2023-02-28T00:22:37;15.68;;;6.90;;
43226;SDS011;28839;52.404;9.808;2023-02-28T00:29:33;11.45;;;7.22;;
43226;SDS011;28839;52.404;9.808;2023-02-28T00:36:28;14.27;;;7.97;;
43226;SDS011;28839;52.404;9.808;2023-02-28T00:43:22;15.60;;;8.05;;
43226;SDS011;28839;52.404;9.808;2023-02-28T00:50:16;12.20;;;6.97;;
43226;SDS011;28839;52.404;9.808;2023-02-28T00:57:11;17.10;;;7.40;;
43226;SDS011;28839;52.404;9.808;2023-02-28T01:04:05;10.80;;;6.03;;
43226;SDS011;28839;52.404;9.808;2023-02-28T01:11:06;12.55;;;7.43;;
43226;SDS011;28839;52.404;9.808;2023-02-28T01:18:02;11.75;;;6.60;;
43226;SDS011;28839;52.404;9.808;2023-02-28T01:24:56;8.70;;;6.15;;
43226;SDS011;28839;52.404;9.808;2023-02-28T01:31:50;9.73;;;5.62;;
43226;SDS011;28839;52.404;9.808;2023-02-28T01:38:45;12.23;;;6.40;;
43226;SDS011;28839;52.404;9.808;2023-02-28T01:45:40;10.43;;;7.55;;
43226;SDS011;28839;52.404;9.808;2023-02-28T01:52:34;10.20;;;7.57;;
43226;SDS011;28839;52.404;9.808;2023-02-28T01:59:31;14.00;;;7.90;;
43226;SDS011;28839;52.404;9.808;2023-02-28T02:06:30;10.82;;;7.15;;
43226;SDS011;28839;52.404;9.808;2023-02-28T02:20:59;9.98;;;6.53;;
43226;SDS011;28839;52.404;9.808;2023-02-28T02:35:37;10.63;;;5.80;;
43226;SDS011;28839;52.404;9.808;2023-02-28T02:42:37;8.32;;;5.72;;
43226;SDS011;28839;52.404;9.808;2023-02-28T02:49:36;11.32;;;5.55;;
43226;SDS011;28839;52.404;9.808;2023-02-28T02:56:33;11.48;;;7.00;;
43226;SDS011;28839;52.404;9.808;2023-02-28T03:03:29;11.88;;;6.37;;
43226;SDS011;28839;52.404;9.808;2023-02-28T03:10:29;10.15;;;5.78;;
43226;SDS011;28839;52.404;9.808;2023-02-28T03:17:40;9.20;;;6.05;;
43226;SDS011;28839;52.404;9.808;2023-02-28T03:24:43;10.50;;;5.62;;
43226;SDS011;28839;52.404;9.808;2023-02-28T03:31:44;10.52;;;7.12;;
43226;SDS011;28839;52.404;9.808;2023-02-28T03:38:45;10.57;;;6.45;;
43226;SDS011;28839;52.404;9.808;2023-02-28T03:45:42;14.65;;;6.50;;
43226;SDS011;28839;52.404;9.808;2023-02-28T03:52:38;11.85;;;6.70;;
43226;SDS011;28839;52.404;9.808;2023-02-28T03:59:38;13.07;;;8.05;;
43226;SDS011;28839;52.404;9.808;2023-02-28T04:06:36;10.68;;;7.35;;
43226;SDS011;28839;52.404;9.808;2023-02-28T04:13:30;12.55;;;6.90;;
43226;SDS011;28839;52.404;9.808;2023-02-28T04:20:25;11.95;;;6.28;;
43226;SDS011;28839;52.404;9.808;2023-02-28T04:27:19;14.07;;;7.20;;
43226;SDS011;28839;52.404;9.808;2023-02-28T04:34:14;10.48;;;6.32;;
43226;SDS011;28839;52.404;9.808;2023-02-28T04:41:09;10.52;;;6.87;;
43226;SDS011;28839;52.404;9.808;2023-02-28T04:48:03;11.35;;;8.23;;
43226;SDS011;28839;52.404;9.808;2023-02-28T04:54:57;8.87;;;5.57;;
43226;SDS011;28839;52.404;9.808;2023-02-28T05:01:53;12.70;;;7.68;;
43226;SDS011;28839;52.404;9.808;2023-02-28T05:08:47;15.43;;;6.90;;
43226;SDS011;28839;52.404;9.808;2023-02-28T05:15:41;11.50;;;6.47;;
43226;SDS011;28839;52.404;9.808;2023-02-28T05:22:36;12.27;;;6.72;;
43226;SDS011;28839;52.404;9.808;2023-02-28T05:29:30;10.10;;;6.93;;
43226;SDS011;28839;52.404;9.808;2023-02-28T05:36:24;12.43;;;6.55;;
43226;SDS011;28839;52.404;9.808;2023-02-28T05:43:19;17.43;;;6.50;;
43226;SDS011;28839;52.404;9.808;2023-02-28T05:50:13;14.65;;;7.20;;
43226;SDS011;28839;52.404;9.808;2023-02-28T05:57:07;9.23;;;5.33;;
43226;SDS011;28839;52.404;9.808;2023-02-28T06:04:03;12.90;;;7.47;;
43226;SDS011;28839;52.404;9.808;2023-02-28T06:10:58;15.32;;;7.45;;
43226;SDS011;28839;52.404;9.808;2023-02-28T06:17:56;15.35;;;8.50;;
43226;SDS011;28839;52.404;9.808;2023-02-28T06:24:51;12.60;;;6.40;;
43226;SDS011;28839;52.404;9.808;2023-02-28T06:31:46;13.82;;;7.35;;
43226;SDS011;28839;52.404;9.808;2023-02-28T06:38:41;13.53;;;7.57;;
43226;SDS011;28839;52.404;9.808;2023-02-28T06:45:36;17.30;;;7.72;;
43226;SDS011;28839;52.404;9.808;2023-02-28T06:52:33;12.20;;;6.25;;
43226;SDS011;28839;52.404;9.808;2023-02-28T06:59:29;11.63;;;7.03;;
43226;SDS011;28839;52.404;9.808;2023-02-28T07:06:24;13.02;;;6.68;;
43226;SDS011;28839;52.404;9.808;2023-02-28T07:13:18;10.23;;;6.57;;
43226;SDS011;28839;52.404;9.808;2023-02-28T07:20:13;13.00;;;7.82;;
43226;SDS011;28839;52.404;9.808;2023-02-28T07:27:09;11.73;;;8.00;;
43226;SDS011;28839;52.404;9.808;2023-02-28T07:34:02;15.05;;;8.23;;
43226;SDS011;28839;52.404;9.808;2023-02-28T07:40:56;14.77;;;7.87;;
43226;SDS011;28839;52.404;9.808;2023-02-28T07:47:52;13.90;;;6.93;;
43226;SDS011;28839;52.404;9.808;2023-02-28T07:54:46;8.35;;;6.50;;
43226;SDS011;28839;52.404;9.808;2023-02-28T08:01:40;8.60;;;5.65;;
43226;SDS011;28839;52.404;9.808;2023-02-28T08:08:37;12.30;;;5.50;;
43226;SDS011;28839;52.404;9.808;2023-02-28T08:15:31;10.77;;;5.35;;
43226;SDS011;28839;52.404;9.808;2023-02-28T08:22:25;13.80;;;5.22;;
43226;SDS011;28839;52.404;9.808;2023-02-28T08:29:21;7.93;;;4.25;;
43226;SDS011;28839;52.404;9.808;2023-02-28T08:36:15;8.02;;;4.43;;
43226;SDS011;28839;52.404;9.808;2023-02-28T08:43:09;6.50;;;4.25;;
43226;SDS011;28839;52.404;9.808;2023-02-28T08:50:04;5.60;;;4.05;;
43226;SDS011;28839;52.404;9.808;2023-02-28T08:56:59;7.43;;;3.70;;
43226;SDS011;28839;52.404;9.808;2023-02-28T09:03:53;4.55;;;2.50;;
43226;SDS011;28839;52.404;9.808;2023-02-28T09:10:49;4.60;;;2.90;;
43226;SDS011;28839;52.404;9.808;2023-02-28T09:17:44;3.30;;;2.35;;
43226;SDS011;28839;52.404;9.808;2023-02-28T09:24:38;3.47;;;2.70;;
43226;SDS011;28839;52.404;9.808;2023-02-28T09:31:33;4.70;;;2.87;;
43226;SDS011;28839;52.404;9.808;2023-02-28T09:38:27;3.47;;;2.40;;
43226;SDS011;28839;52.404;9.808;2023-02-28T09:45:23;4.70;;;2.50;;
43226;SDS011;28839;52.404;9.808;2023-02-28T09:52:23;4.57;;;1.83;;
43226;SDS011;28839;52.404;9.808;2023-02-28T09:59:34;3.30;;;2.28;;
43226;SDS011;28839;52.404;9.808;2023-02-28T10:06:34;6.82;;;2.87;;
43226;SDS011;28839;52.404;9.808;2023-02-28T10:13:34;2.53;;;1.90;;
43226;SDS011;28839;52.404;9.808;2023-02-28T10:20:33;5.47;;;2.05;;
43226;SDS011;28839;52.404;9.808;2023-02-28T10:27:30;2.95;;;1.98;;
43226;SDS011;28839;52.404;9.808;2023-02-28T10:34:27;2.90;;;1.70;;
43226;SDS011;28839;52.404;9.808;2023-02-28T10:41:28;4.45;;;1.83;;
43226;SDS011;28839;52.404;9.808;2023-02-28T10:48:30;4.30;;;1.50;;
43226;SDS011;28839;52.404;9.808;2023-02-28T10:55:28;3.50;;;2.03;;
43226;SDS011;28839;52.404;9.808;2023-02-28T11:02:29;2.35;;;1.37;;
43226;SDS011;28839;52.404;9.808;2023-02-28T11:09:26;2.72;;;1.55;;
43226;SDS011;28839;52.404;9.808;2023-02-28T11:16:32;4.87;;;1.87;;
43226;SDS011;28839;52.404;9.808;2023-02-28T11:23:28;2.35;;;1.37;;
43226;SDS011;28839;52.404;9.808;2023-02-28T11:30:27;2.58;;;1.20;;
43226;SDS011;28839;52.404;9.808;2023-02-28T11:37:28;3.60;;;1.58;;
43226;SDS011;28839;52.404;9.808;2023-02-28T11:44:27;2.25;;;1.30;;
43226;SDS011;28839;52.404;9.808;2023-02-28T11:51:32;4.43;;;1.65;;
43226;SDS011;28839;52.404;9.808;2023-02-28T11:58:39;3.22;;;1.30;;
43226;SDS011;28839;52.404;9.808;2023-02-28T12:05:43;2.90;;;1.60;;
43226;SDS011;28839;52.404;9.808;2023-02-28T12:12:41;4.07;;;1.65;;
43226;SDS011;28839;52.404;9.808;2023-02-28T12:19:43;5.65;;;1.65;;
43226;SDS011;28839;52.404;9.808;2023-02-28T12:26:47;2.45;;;1.60;;
43226;SDS011;28839;52.404;9.808;2023-02-28T12:33:45;3.80;;;1.58;;
43226;SDS011;28839;52.404;9.808;2023-02-28T12:40:44;2.55;;;1.90;;
43226;SDS011;28839;52.404;9.808;2023-02-28T12:47:42;4.47;;;1.87;;
43226;SDS011;28839;52.404;9.808;2023-02-28T12:54:40;9.10;;;2.83;;
43226;SDS011;28839;52.404;9.808;2023-02-28T13:09:05;3.85;;;2.45;;
43226;SDS011;28839;52.404;9.808;2023-02-28T13:16:03;3.47;;;2.37;;
43226;SDS011;28839;52.404;9.808;2023-02-28T13:23:01;4.97;;;2.15;;
43226;SDS011;28839;52.404;9.808;2023-02-28T13:29:57;3.65;;;2.15;;
43226;SDS011;28839;52.404;9.808;2023-02-28T13:36:53;4.37;;;2.33;;
43226;SDS011;28839;52.404;9.808;2023-02-28T13:44:29;4.10;;;2.40;;
43226;SDS011;28839;52.404;9.808;2023-02-28T13:51:28;4.47;;;2.65;;
43226;SDS011;28839;52.404;9.808;2023-02-28T13:58:41;5.28;;;2.37;;
43226;SDS011;28839;52.404;9.808;2023-02-28T14:05:40;6.00;;;2.50;;
43226;SDS011;28839;52.404;9.808;2023-02-28T14:19:48;6.45;;;2.17;;
43226;SDS011;28839;52.404;9.808;2023-02-28T14:34:35;5.28;;;2.25;;
43226;SDS011;28839;52.404;9.808;2023-02-28T14:41:36;3.72;;;2.20;;
43226;SDS011;28839;52.404;9.808;2023-02-28T14:48:31;5.00;;;3.25;;
43226;SDS011;28839;52.404;9.808;2023-02-28T14:55:29;4.32;;;2.08;;
43226;SDS011;28839;52.404;9.808;2023-02-28T15:02:25;4.60;;;2.50;;
43226;SDS011;28839;52.404;9.808;2023-02-28T15:09:24;6.25;;;2.33;;
43226;SDS011;28839;52.404;9.808;2023-02-28T15:16:19;2.85;;;2.33;;
43226;SDS011;28839;52.404;9.808;2023-02-28T15:23:17;4.93;;;2.50;;
43226;SDS011;28839;52.404;9.808;2023-02-28T15:30:14;4.00;;;2.50;;
43226;SDS011;28839;52.404;9.808;2023-02-28T15:37:33;4.07;;;2.50;;
43226;SDS011;28839;52.404;9.808;2023-02-28T15:44:33;6.85;;;2.78;;
43226;SDS011;28839;52.404;9.808;2023-02-28T15:58:25;16.42;;;7.50;;
43226;SDS011;28839;52.404;9.808;2023-02-28T16:05:21;7.03;;;3.47;;
43226;SDS011;28839;52.404;9.808;2023-02-28T16:12:20;4.18;;;2.60;;
43226;SDS011;28839;52.404;9.808;2023-02-28T16:19:19;11.32;;;4.18;;
43226;SDS011;28839;52.404;9.808;2023-02-28T16:26:16;5.20;;;3.25;;
43226;SDS011;28839;52.404;9.808;2023-02-28T16:33:14;5.62;;;2.90;;
43226;SDS011;28839;52.404;9.808;2023-02-28T16:40:12;7.97;;;4.62;;
43226;SDS011;28839;52.404;9.808;2023-02-28T16:47:08;10.18;;;6.70;;
43226;SDS011;28839;52.404;9.808;2023-02-28T16:54:03;20.25;;;10.10;;
43226;SDS011;28839;52.404;9.808;2023-02-28T17:01:00;7.43;;;6.35;;
43226;SDS011;28839;52.404;9.808;2023-02-28T17:07:54;6.62;;;4.65;;
43226;SDS011;28839;52.404;9.808;2023-02-28T17:14:48;8.10;;;3.80;;
43226;SDS011;28839;52.404;9.808;2023-02-28T17:21:44;6.30;;;3.27;;
43226;SDS011;28839;52.404;9.808;2023-02-28T17:28:38;5.78;;;3.00;;
43226;SDS011;28839;52.404;9.808;2023-02-28T17:35:32;5.28;;;3.45;;
43226;SDS011;28839;52.404;9.808;2023-02-28T17:42:27;4.93;;;2.63;;
43226;SDS011;28839;52.404;9.808;2023-02-28T17:49:21;10.57;;;4.40;;
43226;SDS011;28839;52.404;9.808;2023-02-28T17:56:16;7.32;;;4.82;;
43226;SDS011;28839;52.404;9.808;2023-02-28T18:03:13;15.35;;;6.37;;
43226;SDS011;28839;52.404;9.808;2023-02-28T18:10:07;15.13;;;6.80;;
43226;SDS011;28839;52.404;9.808;2023-02-28T18:17:07;11.82;;;6.45;;
43226;SDS011;28839;52.404;9.808;2023-02-28T18:30:57;10.57;;;5.90;;
43226;SDS011;28839;52.404;9.808;2023-02-28T18:37:57;8.32;;;4.80;;
43226;SDS011;28839;52.404;9.808;2023-02-28T18:44:52;8.88;;;4.72;;
43226;SDS011;28839;52.404;9.808;2023-02-28T18:51:46;11.32;;;5.25;;
43226;SDS011;28839;52.404;9.808;2023-02-28T18:58:40;7.43;;;4.50;;
43226;SDS011;28839;52.404;9.808;2023-02-28T19:05:37;9.60;;;4.50;;
43226;SDS011;28839;52.404;9.808;2023-02-28T19:12:32;7.65;;;5.05;;
43226;SDS011;28839;52.404;9.808;2023-02-28T19:19:26;10.82;;;6.30;;
43226;SDS011;28839;52.404;9.808;2023-02-28T19:26:22;10.45;;;6.03;;
43226;SDS011;28839;52.404;9.808;2023-02-28T19:33:17;9.73;;;6.15;;
43226;SDS011;28839;52.404;9.808;2023-02-28T19:40:12;6.97;;;4.37;;
43226;SDS011;28839;52.404;9.808;2023-02-28T19:47:07;9.40;;;5.77;;
43226;SDS011;28839;52.404;9.808;2023-02-28T19:54:02;11.52;;;6.32;;
43226;SDS011;28839;52.404;9.808;2023-02-28T20:00:56;11.02;;;6.32;;
43226;SDS011;28839;52.404;9.808;2023-02-28T20:07:53;9.38;;;6.25;;
43226;SDS011;28839;52.404;9.808;2023-02-28T20:14:47;14.13;;;6.65;;
43226;SDS011;28839;52.404;9.808;2023-02-28T20:21:41;14.20;;;8.73;;
43226;SDS011;28839;52.404;9.808;2023-02-28T20:28:37;17.92;;;9.65;;
43226;SDS011;28839;52.404;9.808;2023-02-28T20:35:31;19.40;;;11.18;;
43226;SDS011;28839;52.404;9.808;2023-02-28T20:42:31;22.03;;;11.57;;
43226;SDS011;28839;52.404;9.808;2023-02-28T20:49:27;16.67;;;10.10;;
43226;SDS011;28839;52.404;9.808;2023-02-28T20:56:21;20.33;;;10.45;;
43226;SDS011;28839;52.404;9.808;2023-02-28T21:03:15;16.62;;;9.45;;
43226;SDS011;28839;52.404;9.808;2023-02-28T21:10:11;15.98;;;9.18;;
43226;SDS011;28839;52.404;9.808;2023-02-28T21:17:05;23.65;;;12.57;;
43226;SDS011;28839;52.404;9.808;2023-02-28T21:24:01;13.20;;;9.80;;
43226;SDS011;28839;52.404;9.808;2023-02-28T21:31:00;16.17;;;9.10;;
43226;SDS011;28839;52.404;9.808;2023-02-28T21:37:55;13.88;;;8.90;;
43226;SDS011;28839;52.404;9.808;2023-02-28T21:44:49;14.43;;;9.18;;
43226;SDS011;28839;52.404;9.808;2023-02-28T21:51:44;14.60;;;9.32;;
43226;SDS011;28839;52.404;9.808;2023-02-28T21:58:41;13.43;;;6.93;;
43226;SDS011;28839;52.404;9.808;2023-02-28T22:05:35;14.95;;;7.72;;
43226;SDS011;28839;52.404;9.808;2023-02-28T22:12:30;13.73;;;8.47;;
43226;SDS011;28839;52.404;9.808;2023-02-28T22:19:24;13.40;;;8.32;;
43226;SDS011;28839;52.404;9.808;2023-02-28T22:26:18;15.17;;;9.20;;
43226;SDS011;28839;52.404;9.808;2023-02-28T22:33:15;16.98;;;9.80;;
43226;SDS011;28839;52.404;9.808;2023-02-28T22:40:10;20.75;;;11.15;;
43226;SDS011;28839;52.404;9.808;2023-02-28T22:54:00;12.02;;;7.40;;
43226;SDS011;28839;52.404;9.808;2023-02-28T23:00:54;13.55;;;7.85;;
43226;SDS011;28839;52.404;9.808;2023-02-28T23:07:48;12.40;;;8.47;;
43226;SDS011;28839;52.404;9.808;2023-02-28T23:14:44;18.03;;;8.20;;
43226;SDS011;28839;52.404;9.808;2023-02-28T23:21:38;17.42;;;8.60;;
43226;SDS011;28839;52.404;9.808;2023-02-28T23:28:33;15.88;;;8.80;;
43226;SDS011;28839;52.404;9.808;2023-02-28T23:35:28;15.80;;;9.43;;
43226;SDS011;28839;52.404;9.808;2023-02-28T23:42:22;16.10;;;8.95;;
43226;SDS011;28839;52.404;9.808;2023-02-28T23:49:16;14.25;;;8.68;;
43226;SDS011;28839;52.404;9.808;2023-02-28T23:56:13;12.25;;;8.63;;
